Time;durP1;ratioP1;P1;durP2;ratioP2;P2;SDS_P1;SDS_P2;PMS_P1;PMS_P2;Temp;Humidity;BMP_temperature;BMP_pressure;BME280_temperature;BME280_humidity;BME280_pressure;Samples;Min_cycle;Max_cycle;Signal;HPM_P1;HPM_P2
2023/08/08 00:02:39;;;;;;;3.17;2.40;;;13.20;99.90;;;;;;5000160;28;20437;-77
2023/08/08 00:05:26;;;;;;;3.10;2.47;;;13.10;99.90;;;;;;5003019;28;20424;-77
2023/08/08 00:08:11;;;;;;;6.67;2.50;;;13.20;99.90;;;;;;5001444;28;20522;-77
2023/08/08 00:10:57;;;;;;;3.37;2.60;;;13.20;99.90;;;;;;5005576;28;20457;-76
2023/08/08 00:13:42;;;;;;;3.30;2.80;;;13.30;99.90;;;;;;5008782;28;20473;-77
2023/08/08 00:16:27;;;;;;;11.63;2.60;;;13.30;99.90;;;;;;5006409;28;20440;-76
2023/08/08 00:19:13;;;;;;;3.13;2.57;;;13.40;99.90;;;;;;5003428;28;20971;-77
2023/08/08 00:22:00;;;;;;;5.70;2.93;;;13.40;99.90;;;;;;5005898;28;20482;-76
2023/08/08 00:24:45;;;;;;;7.90;3.40;;;13.30;99.90;;;;;;5008505;28;20450;-77
2023/08/08 00:27:31;;;;;;;4.80;2.27;;;13.30;99.90;;;;;;5003175;28;20434;-77
2023/08/08 00:30:16;;;;;;;4.17;2.50;;;13.30;99.90;;;;;;5007717;28;20571;-76
2023/08/08 00:33:02;;;;;;;4.00;2.67;;;13.30;99.90;;;;;;5008885;28;20559;-76
2023/08/08 00:35:48;;;;;;;6.00;2.50;;;13.40;99.90;;;;;;5004095;28;20503;-77
2023/08/08 00:38:34;;;;;;;5.27;3.63;;;13.30;99.90;;;;;;5014218;28;20528;-76
2023/08/08 00:41:20;;;;;;;3.60;2.53;;;13.20;99.90;;;;;;5008348;28;20464;-76
2023/08/08 00:44:05;;;;;;;11.70;3.03;;;13.20;99.90;;;;;;5016514;28;20440;-77
2023/08/08 00:46:51;;;;;;;4.73;2.47;;;13.00;99.90;;;;;;5012609;28;20448;-76
2023/08/08 00:49:38;;;;;;;5.70;2.57;;;13.00;99.90;;;;;;5014154;28;20913;-77
2023/08/08 00:52:25;;;;;;;14.07;3.27;;;12.80;99.90;;;;;;5010688;28;20952;-76
2023/08/08 00:55:14;;;;;;;9.80;2.77;;;12.80;99.90;;;;;;5009834;28;20426;-76
2023/08/08 00:58:00;;;;;;;4.27;3.00;;;12.70;99.90;;;;;;5016897;28;20524;-77
2023/08/08 01:00:45;;;;;;;6.17;3.47;;;12.70;99.90;;;;;;5004125;28;20467;-77
2023/08/08 01:03:31;;;;;;;5.37;2.50;;;12.70;99.90;;;;;;5002960;28;20547;-77
2023/08/08 01:06:23;;;;;;;4.07;2.60;;;12.60;99.90;;;;;;5004940;28;20515;-77
2023/08/08 01:09:15;;;;;;;3.93;2.53;;;12.60;99.90;;;;;;5012695;28;20493;-76
2023/08/08 01:12:03;;;;;;;8.03;2.87;;;12.70;99.90;;;;;;5007175;28;20586;-77
2023/08/08 01:14:48;;;;;;;8.30;2.70;;;12.60;99.90;;;;;;5010762;28;20448;-76
2023/08/08 01:17:35;;;;;;;5.80;2.70;;;12.60;99.90;;;;;;5012027;28;20477;-77
2023/08/08 01:20:22;;;;;;;4.27;2.70;;;12.60;99.90;;;;;;5006975;28;24343;-77
2023/08/08 01:23:15;;;;;;;6.53;3.00;;;12.60;99.90;;;;;;5007422;28;20501;-77
2023/08/08 01:26:03;;;;;;;6.10;2.83;;;12.50;99.90;;;;;;5007888;28;20575;-77
2023/08/08 01:28:48;;;;;;;5.70;2.70;;;12.50;99.90;;;;;;5008574;28;20451;-77
2023/08/08 01:31:34;;;;;;;3.50;2.50;;;12.40;99.90;;;;;;5013005;28;20508;-77
2023/08/08 01:34:19;;;;;;;4.83;2.73;;;12.40;99.90;;;;;;5016538;28;20533;-76
2023/08/08 01:37:10;;;;;;;6.23;2.40;;;12.30;99.90;;;;;;5010019;28;20449;-77
2023/08/08 01:39:58;;;;;;;3.43;2.10;;;12.30;99.90;;;;;;5000011;28;20457;-77
2023/08/08 01:42:47;;;;;;;5.30;3.73;;;12.30;99.90;;;;;;5006333;28;20591;-76
2023/08/08 01:45:33;;;;;;;5.90;2.50;;;12.20;99.90;;;;;;5009104;28;20494;-77
2023/08/08 01:48:19;;;;;;;4.20;2.40;;;12.30;99.90;;;;;;5011737;28;20724;-76
2023/08/08 01:51:04;;;;;;;4.87;2.47;;;12.20;99.90;;;;;;5011474;28;20422;-77
2023/08/08 01:53:50;;;;;;;4.57;2.80;;;12.30;99.90;;;;;;5017114;28;20540;-77
2023/08/08 01:56:35;;;;;;;5.63;2.27;;;12.10;99.90;;;;;;5005061;28;20448;-77
2023/08/08 01:59:22;;;;;;;3.50;2.37;;;12.10;99.90;;;;;;5013030;28;20485;-77
2023/08/08 02:02:07;;;;;;;3.60;2.67;;;12.00;99.90;;;;;;5014712;28;20434;-76
2023/08/08 02:04:53;;;;;;;40.60;4.70;;;12.00;99.90;;;;;;5010988;28;20804;-77
2023/08/08 02:07:38;;;;;;;5.73;2.33;;;11.90;99.90;;;;;;5018474;28;20585;-77
2023/08/08 02:10:24;;;;;;;3.30;2.33;;;12.00;99.90;;;;;;5006879;28;20433;-77
2023/08/08 02:13:09;;;;;;;6.63;2.80;;;12.00;99.90;;;;;;5014033;28;20589;-77
2023/08/08 02:15:56;;;;;;;4.20;2.83;;;12.10;99.90;;;;;;5008071;28;20426;-77
2023/08/08 02:18:42;;;;;;;4.67;2.37;;;12.20;99.90;;;;;;5014568;28;20495;-76
2023/08/08 02:21:28;;;;;;;16.10;2.70;;;12.20;99.90;;;;;;5009787;28;20973;-79
2023/08/08 02:24:13;;;;;;;13.57;2.70;;;12.20;99.90;;;;;;5014733;28;22686;-77
2023/08/08 02:26:59;;;;;;;5.43;2.77;;;12.30;99.90;;;;;;5012320;28;20527;-76
2023/08/08 02:29:44;;;;;;;3.40;2.20;;;12.40;99.90;;;;;;5008134;28;22490;-77
2023/08/08 02:32:31;;;;;;;5.03;2.43;;;12.40;99.90;;;;;;5008398;28;20607;-77
2023/08/08 02:35:17;;;;;;;5.63;2.83;;;12.40;99.90;;;;;;5007946;28;20447;-75
2023/08/08 02:38:02;;;;;;;6.13;2.60;;;12.30;99.90;;;;;;5005399;28;20623;-77
2023/08/08 02:40:48;;;;;;;5.47;2.90;;;12.40;99.90;;;;;;5015466;28;20447;-77
2023/08/08 02:43:33;;;;;;;7.00;2.70;;;12.30;99.90;;;;;;5002518;28;20415;-77
2023/08/08 02:46:19;;;;;;;5.17;2.23;;;12.20;99.90;;;;;;5004735;28;20494;-75
2023/08/08 02:49:06;;;;;;;4.13;2.60;;;12.10;99.90;;;;;;5008432;28;20574;-77
2023/08/08 02:51:51;;;;;;;3.80;2.43;;;12.10;99.90;;;;;;5012406;28;20813;-75
2023/08/08 02:54:37;;;;;;;6.73;2.23;;;12.10;99.90;;;;;;5012688;28;20498;-76
2023/08/08 02:57:22;;;;;;;3.50;2.30;;;12.10;99.90;;;;;;5009221;28;20448;-76
2023/08/08 03:00:09;;;;;;;5.83;3.00;;;12.00;99.90;;;;;;5002419;28;20432;-76
2023/08/08 03:02:54;;;;;;;8.63;2.50;;;12.00;99.90;;;;;;5008699;28;20444;-77
2023/08/08 03:05:41;;;;;;;4.07;2.43;;;12.00;99.90;;;;;;5008643;28;20456;-76
2023/08/08 03:08:27;;;;;;;5.90;2.30;;;11.90;99.90;;;;;;5007936;28;20468;-76
2023/08/08 03:11:13;;;;;;;4.80;3.00;;;11.90;99.90;;;;;;5012626;28;20452;-76
2023/08/08 03:13:58;;;;;;;6.13;2.90;;;11.80;99.90;;;;;;5008848;28;20450;-77
2023/08/08 03:16:44;;;;;;;4.23;2.60;;;11.70;99.90;;;;;;5001278;28;20698;-75
2023/08/08 03:19:29;;;;;;;16.80;2.30;;;11.70;99.90;;;;;;5002641;28;20446;-76
2023/08/08 03:22:16;;;;;;;5.50;2.30;;;11.70;99.90;;;;;;5008680;28;21026;-76
2023/08/08 03:25:04;;;;;;;9.70;2.70;;;11.70;99.90;;;;;;5007395;28;20459;-77
2023/08/08 03:27:49;;;;;;;6.80;2.10;;;11.70;99.90;;;;;;5011560;28;20475;-77
2023/08/08 03:30:36;;;;;;;3.43;2.10;;;11.80;99.90;;;;;;5007038;28;20436;-75
2023/08/08 03:33:22;;;;;;;5.67;2.80;;;11.80;99.90;;;;;;5004550;28;20480;-75
2023/08/08 03:36:07;;;;;;;4.83;3.67;;;11.60;99.90;;;;;;5006505;28;20759;-75
2023/08/08 03:38:54;;;;;;;4.67;2.53;;;11.70;99.90;;;;;;5004355;28;20472;-76
2023/08/08 03:41:40;;;;;;;5.83;2.50;;;11.60;99.90;;;;;;5004497;28;20451;-75
2023/08/08 03:44:25;;;;;;;5.07;2.20;;;11.70;99.90;;;;;;5000489;28;20584;-76
2023/08/08 03:47:11;;;;;;;4.03;2.10;;;11.70;99.90;;;;;;5008413;28;20443;-75
2023/08/08 03:49:57;;;;;;;3.00;2.20;;;11.70;99.90;;;;;;5007795;28;20452;-74
2023/08/08 03:52:42;;;;;;;6.30;2.53;;;11.50;99.90;;;;;;5012284;28;20478;-76
2023/08/08 03:55:29;;;;;;;4.07;2.43;;;11.50;99.90;;;;;;5003929;28;21047;-76
2023/08/08 03:58:15;;;;;;;6.90;2.73;;;11.50;99.90;;;;;;5003730;28;20483;-77
2023/08/08 04:01:00;;;;;;;7.47;1.90;;;11.50;99.90;;;;;;5013681;28;20449;-76
2023/08/08 04:03:46;;;;;;;7.53;2.57;;;11.40;99.90;;;;;;5002219;28;20933;-76
2023/08/08 04:06:31;;;;;;;5.37;2.63;;;11.40;99.90;;;;;;5012662;28;20542;-76
2023/08/08 04:09:17;;;;;;;2.80;2.00;;;11.50;99.90;;;;;;5011564;28;20995;-77
2023/08/08 04:12:04;;;;;;;5.00;2.10;;;11.40;99.90;;;;;;5017524;28;20440;-77
2023/08/08 04:14:50;;;;;;;4.13;2.20;;;11.40;99.90;;;;;;5006386;28;20456;-76
2023/08/08 04:17:36;;;;;;;5.53;2.40;;;11.40;99.90;;;;;;5009308;28;20448;-76
2023/08/08 04:20:21;;;;;;;5.50;2.73;;;11.40;99.90;;;;;;5004938;28;20519;-76
2023/08/08 04:23:07;;;;;;;6.53;2.57;;;11.50;99.90;;;;;;5004801;28;20443;-76
2023/08/08 04:25:52;;;;;;;4.97;1.80;;;11.40;99.90;;;;;;5007112;28;20467;-77
2023/08/08 04:28:39;;;;;;;5.67;2.80;;;11.30;99.90;;;;;;5014856;28;20467;-76
2023/08/08 04:31:25;;;;;;;3.53;2.53;;;11.30;99.90;;;;;;5004257;28;20438;-77
2023/08/08 04:34:10;;;;;;;6.00;2.27;;;11.30;99.90;;;;;;5005526;28;20487;-74
2023/08/08 04:36:56;;;;;;;3.03;1.70;;;11.30;99.90;;;;;;5010913;28;20443;-75
2023/08/08 04:39:42;;;;;;;2.40;1.87;;;11.40;99.90;;;;;;5008792;28;20562;-75
2023/08/08 04:42:27;;;;;;;5.27;2.20;;;11.40;99.90;;;;;;5003009;28;20452;-75
2023/08/08 04:45:14;;;;;;;4.80;2.10;;;11.40;99.90;;;;;;5004834;28;20447;-75
2023/08/08 04:48:00;;;;;;;6.13;1.93;;;11.50;99.90;;;;;;4995991;28;20476;-76
2023/08/08 04:50:48;;;;;;;4.67;2.60;;;11.60;99.90;;;;;;5006201;28;20948;-76
2023/08/08 04:53:34;;;;;;;4.23;2.00;;;11.60;99.90;;;;;;5007181;28;20472;-76
2023/08/08 04:56:19;;;;;;;4.37;2.13;;;11.60;99.90;;;;;;5006582;28;20552;-76
2023/08/08 04:59:05;;;;;;;6.23;2.50;;;11.70;99.90;;;;;;5030126;22;20489;-85
2023/08/08 05:01:52;;;;;;;9.53;2.20;;;11.50;99.90;;;;;;5042470;28;20518;-86
2023/08/08 05:04:37;;;;;;;7.37;2.20;;;11.50;99.90;;;;;;5041366;28;20452;-85
2023/08/08 05:07:23;;;;;;;5.60;2.40;;;11.50;99.90;;;;;;5041964;28;20433;-84
2023/08/08 05:10:08;;;;;;;4.30;2.40;;;11.50;99.90;;;;;;5039606;28;20560;-86
2023/08/08 05:12:54;;;;;;;3.83;2.40;;;11.60;99.90;;;;;;5039910;28;20570;-85
2023/08/08 05:15:40;;;;;;;5.20;2.63;;;11.60;99.90;;;;;;5041838;28;20617;-84
2023/08/08 05:18:27;;;;;;;7.20;2.50;;;11.70;99.90;;;;;;5042373;28;20525;-85
2023/08/08 05:21:12;;;;;;;5.63;2.63;;;11.80;99.90;;;;;;5040415;28;20524;-85
2023/08/08 05:23:58;;;;;;;6.20;2.80;;;11.90;99.90;;;;;;5047754;28;21021;-85
2023/08/08 05:26:43;;;;;;;6.00;2.20;;;11.90;99.90;;;;;;5045305;28;20446;-85
2023/08/08 05:29:29;;;;;;;5.43;2.63;;;12.00;99.90;;;;;;5040548;28;20450;-86
2023/08/08 05:32:14;;;;;;;5.90;3.00;;;12.10;99.90;;;;;;5046408;28;20621;-85
2023/08/08 05:35:04;;;;;;;10.80;2.80;;;12.10;99.90;;;;;;5056617;28;20482;-85
2023/08/08 05:37:49;;;;;;;7.73;3.00;;;12.20;99.90;;;;;;5053578;28;20857;-84
2023/08/08 05:40:35;;;;;;;7.70;3.10;;;12.30;99.90;;;;;;5050236;28;20450;-85
2023/08/08 05:43:21;;;;;;;6.17;3.40;;;12.50;99.90;;;;;;5048262;28;20446;-85
2023/08/08 05:46:06;;;;;;;7.37;3.00;;;12.50;99.90;;;;;;5043910;28;20466;-84
2023/08/08 05:48:52;;;;;;;4.13;2.40;;;12.60;99.90;;;;;;5044774;28;20489;-86
2023/08/08 05:51:40;;;;;;;7.53;3.63;;;12.70;99.90;;;;;;5044796;28;20524;-85
2023/08/08 05:54:25;;;;;;;4.70;2.70;;;12.70;99.90;;;;;;5043488;28;20497;-85
2023/08/08 05:57:11;;;;;;;22.00;3.30;;;12.80;99.90;;;;;;5044645;28;20465;-85
2023/08/08 05:59:57;;;;;;;7.13;3.30;;;12.80;99.90;;;;;;5046949;28;20458;-86
2023/08/08 06:02:43;;;;;;;6.23;2.93;;;12.90;99.90;;;;;;5046057;28;20986;-85
2023/08/08 06:05:29;;;;;;;6.27;3.27;;;13.00;99.90;;;;;;5042559;28;21096;-85
2023/08/08 06:08:16;;;;;;;3.80;2.70;;;13.10;99.90;;;;;;5045312;28;20449;-85
2023/08/08 06:11:02;;;;;;;7.50;2.60;;;13.20;99.90;;;;;;5045783;28;20598;-84
2023/08/08 06:13:47;;;;;;;9.10;2.80;;;13.40;99.90;;;;;;5039153;28;20898;-85
2023/08/08 06:16:33;;;;;;;9.70;4.50;;;13.50;99.90;;;;;;5049129;28;20553;-85
2023/08/08 06:19:18;;;;;;;8.60;2.43;;;13.60;99.90;;;;;;5047845;28;20466;-84
2023/08/08 06:22:04;;;;;;;3.70;2.10;;;13.80;99.90;;;;;;5047551;28;20451;-85
2023/08/08 06:24:51;;;;;;;8.73;2.53;;;14.00;99.90;;;;;;5043708;28;20435;-85
2023/08/08 06:27:36;;;;;;;3.50;2.30;;;14.10;99.90;;;;;;5047492;28;20420;-86
2023/08/08 06:30:22;;;;;;;4.23;2.20;;;14.20;99.90;;;;;;5042942;28;20429;-85
2023/08/08 06:33:08;;;;;;;5.90;2.47;;;14.30;99.90;;;;;;5045573;28;20448;-85
2023/08/08 06:35:53;;;;;;;6.40;2.50;;;14.50;99.90;;;;;;5051474;28;20441;-85
2023/08/08 06:38:39;;;;;;;9.87;2.67;;;14.60;99.90;;;;;;5052129;28;20411;-84
2023/08/08 06:41:26;;;;;;;3.83;2.60;;;14.70;99.90;;;;;;5050707;28;20553;-84
2023/08/08 06:44:11;;;;;;;3.33;1.90;;;14.80;99.90;;;;;;5041385;28;20492;-84
2023/08/08 06:46:57;;;;;;;4.57;2.70;;;14.90;99.90;;;;;;5043161;28;20517;-84
2023/08/08 06:49:43;;;;;;;12.53;2.10;;;14.90;99.90;;;;;;5046830;28;20477;-85
2023/08/08 06:52:28;;;;;;;4.83;2.87;;;15.00;99.90;;;;;;5039410;28;20446;-85
2023/08/08 06:55:14;;;;;;;5.80;2.57;;;15.00;99.90;;;;;;5043027;28;20557;-85
2023/08/08 06:58:01;;;;;;;4.17;2.30;;;15.10;99.90;;;;;;5043403;28;20486;-85
2023/08/08 07:00:47;;;;;;;5.20;2.47;;;15.20;99.90;;;;;;5039404;28;20451;-85
2023/08/08 07:03:32;;;;;;;6.60;2.53;;;15.10;99.90;;;;;;5041423;28;20416;-85
2023/08/08 07:06:19;;;;;;;5.30;2.90;;;15.10;99.90;;;;;;5042113;28;20482;-84
2023/08/08 07:09:04;;;;;;;5.63;2.60;;;15.10;99.90;;;;;;5045273;28;20832;-85
2023/08/08 07:11:50;;;;;;;5.10;2.60;;;15.10;99.90;;;;;;5041088;28;20858;-85
2023/08/08 07:14:37;;;;;;;4.50;2.60;;;15.20;99.90;;;;;;5041731;28;20860;-85
2023/08/08 07:17:22;;;;;;;4.43;1.73;;;15.30;99.90;;;;;;5042662;28;20501;-85
2023/08/08 07:20:09;;;;;;;4.30;2.70;;;15.30;99.90;;;;;;5040103;28;21039;-84
2023/08/08 07:22:54;;;;;;;3.70;2.23;;;15.30;99.90;;;;;;5042274;28;20782;-84
2023/08/08 07:25:39;;;;;;;5.77;2.53;;;15.40;99.90;;;;;;5056147;23;20474;-73
2023/08/08 07:28:25;;;;;;;4.50;2.00;;;15.50;99.90;;;;;;5045957;28;20475;-72
2023/08/08 07:31:12;;;;;;;4.30;2.37;;;15.70;99.90;;;;;;5030234;28;20440;-73
2023/08/08 07:33:57;;;;;;;7.80;2.67;;;15.70;99.90;;;;;;5037041;28;21064;-71
2023/08/08 07:36:43;;;;;;;4.33;2.87;;;15.80;99.90;;;;;;5035785;28;20787;-72
2023/08/08 07:39:28;;;;;;;8.37;3.87;;;15.80;99.90;;;;;;5043704;28;20445;-71
2023/08/08 07:42:14;;;;;;;8.70;2.37;;;15.80;99.90;;;;;;5034258;28;20806;-71
2023/08/08 07:44:59;;;;;;;3.70;2.27;;;16.00;99.90;;;;;;5039747;28;20456;-72
2023/08/08 07:47:46;;;;;;;4.17;2.00;;;16.00;99.90;;;;;;5042311;28;21176;-72
2023/08/08 07:50:32;;;;;;;5.67;2.33;;;16.20;99.90;;;;;;5040353;28;20524;-73
2023/08/08 07:53:17;;;;;;;4.30;2.70;;;16.30;99.90;;;;;;5043751;28;20418;-72
2023/08/08 07:56:03;;;;;;;10.97;3.10;;;16.40;99.90;;;;;;5035335;28;20818;-72
2023/08/08 07:58:48;;;;;;;6.50;3.50;;;16.40;99.90;;;;;;5041543;28;20665;-73
2023/08/08 08:01:34;;;;;;;6.97;2.63;;;16.50;99.90;;;;;;5041227;28;20439;-72
2023/08/08 08:04:21;;;;;;;3.57;1.90;;;16.60;99.90;;;;;;5040025;28;20458;-71
2023/08/08 08:07:06;;;;;;;3.20;1.73;;;16.70;99.90;;;;;;5033136;28;20461;-72
2023/08/08 08:09:52;;;;;;;8.47;3.23;;;16.70;99.90;;;;;;5035055;28;20588;-73
2023/08/08 08:12:37;;;;;;;4.67;1.80;;;16.80;99.90;;;;;;5038347;28;20530;-73
2023/08/08 08:15:22;;;;;;;5.43;3.10;;;16.90;99.90;;;;;;5034391;28;20467;-73
2023/08/08 08:18:08;;;;;;;6.27;2.47;;;16.80;99.90;;;;;;5036492;28;20583;-72
2023/08/08 08:20:55;;;;;;;3.93;1.70;;;16.80;99.90;;;;;;5037979;28;20447;-72
2023/08/08 08:23:41;;;;;;;3.87;1.73;;;16.80;99.90;;;;;;5036596;28;21020;-72
2023/08/08 08:26:26;;;;;;;6.90;1.60;;;16.90;99.90;;;;;;5035802;28;21010;-72
2023/08/08 08:29:12;;;;;;;2.80;1.40;;;16.90;99.90;;;;;;5040960;28;20857;-74
2023/08/08 08:31:57;;;;;;;3.37;1.53;;;17.00;99.90;;;;;;5037991;28;21215;-72
2023/08/08 08:34:44;;;;;;;4.07;1.67;;;17.10;99.90;;;;;;5038207;28;21009;-73
2023/08/08 08:37:30;;;;;;;8.67;1.37;;;17.10;99.90;;;;;;5037903;28;20901;-73
2023/08/08 08:40:15;;;;;;;5.33;1.53;;;17.00;99.90;;;;;;5035051;28;20462;-73
2023/08/08 08:43:02;;;;;;;3.33;1.40;;;17.10;99.90;;;;;;5032999;28;20525;-73
2023/08/08 08:45:51;;;;;;;5.13;1.60;;;17.20;99.90;;;;;;5036232;28;20664;-73
2023/08/08 08:48:36;;;;;;;8.90;2.00;;;17.10;99.90;;;;;;5036608;28;20538;-73
2023/08/08 08:51:22;;;;;;;5.60;1.40;;;17.10;99.90;;;;;;5036341;28;20497;-73
2023/08/08 08:54:11;;;;;;;3.57;1.67;;;17.10;99.90;;;;;;5032881;28;20586;-73
2023/08/08 08:56:57;;;;;;;8.60;1.87;;;17.20;99.90;;;;;;5041606;28;20574;-73
2023/08/08 08:59:42;;;;;;;5.10;1.60;;;17.20;99.90;;;;;;5043144;28;20467;-72
2023/08/08 09:02:28;;;;;;;2.63;1.33;;;17.20;99.90;;;;;;5038084;28;20465;-73
2023/08/08 09:05:15;;;;;;;9.40;1.90;;;17.30;99.90;;;;;;5040945;28;20457;-71
2023/08/08 09:08:01;;;;;;;3.50;1.20;;;17.40;99.90;;;;;;5042156;28;20440;-72
2023/08/08 09:10:48;;;;;;;6.40;1.63;;;17.30;99.90;;;;;;5034789;28;20605;-72
2023/08/08 09:13:38;;;;;;;3.47;1.77;;;17.40;99.90;;;;;;5039278;28;20466;-71
2023/08/08 09:16:25;;;;;;;3.57;1.30;;;17.50;99.90;;;;;;5037247;28;20463;-72
2023/08/08 09:19:11;;;;;;;5.03;1.50;;;17.60;99.90;;;;;;5040128;28;20468;-72
2023/08/08 09:21:56;;;;;;;8.53;1.70;;;17.60;99.90;;;;;;5036764;28;20574;-72
2023/08/08 09:24:42;;;;;;;3.63;1.50;;;17.60;99.90;;;;;;5040101;28;20439;-71
2023/08/08 09:27:31;;;;;;;5.17;1.40;;;17.70;99.90;;;;;;5034029;28;20414;-72
2023/08/08 09:30:21;;;;;;;4.57;1.97;;;17.70;99.90;;;;;;5043143;28;20468;-71
2023/08/08 09:33:08;;;;;;;8.10;2.00;;;17.80;99.90;;;;;;5043415;28;20434;-72
2023/08/08 09:35:55;;;;;;;3.13;1.87;;;17.80;99.90;;;;;;5035297;28;20503;-72
2023/08/08 09:38:42;;;;;;;6.77;2.00;;;17.90;99.90;;;;;;5039839;28;20485;-72
2023/08/08 09:41:27;;;;;;;5.20;1.40;;;18.10;99.90;;;;;;5039292;28;20416;-71
2023/08/08 09:44:14;;;;;;;4.93;1.63;;;18.20;96.90;;;;;;5035329;28;20845;-72
2023/08/08 09:47:00;;;;;;;6.77;2.40;;;18.30;99.90;;;;;;5040618;28;20518;-73
2023/08/08 09:49:46;;;;;;;5.30;2.20;;;18.40;99.70;;;;;;5037335;28;20474;-72
2023/08/08 09:52:33;;;;;;;5.30;1.93;;;18.50;95.90;;;;;;5043451;28;20933;-72
2023/08/08 09:55:20;;;;;;;3.20;1.50;;;18.70;94.70;;;;;;5039513;28;20489;-72
2023/08/08 09:58:08;;;;;;;3.27;1.57;;;18.80;79.60;;;;;;5040060;28;20445;-73
2023/08/08 10:00:54;;;;;;;8.87;1.63;;;19.00;84.30;;;;;;5040177;28;20812;-71
2023/08/08 10:03:42;;;;;;;8.83;1.80;;;19.10;77.10;;;;;;5037280;28;20804;-73
2023/08/08 10:06:28;;;;;;;2.10;1.30;;;19.20;82.40;;;;;;5040563;28;20484;-73
2023/08/08 10:09:13;;;;;;;3.37;1.73;;;19.30;92.20;;;;;;5037986;28;20984;-73
2023/08/08 10:12:00;;;;;;;3.50;1.30;;;19.30;50.00;;;;;;5040937;28;20447;-73
2023/08/08 10:14:46;;;;;;;2.30;1.37;;;19.30;55.10;;;;;;5041123;28;20623;-72
2023/08/08 10:17:37;;;;;;;3.87;1.80;;;19.20;51.00;;;;;;5037890;28;20460;-75
2023/08/08 10:20:23;;;;;;;3.50;1.30;;;19.40;84.00;;;;;;5029653;28;20811;-70
2023/08/08 10:23:09;;;;;;;5.50;2.10;;;19.50;68.50;;;;;;5042426;28;21194;-70
2023/08/08 10:25:56;;;;;;;3.40;1.30;;;19.60;80.20;;;;;;5032249;28;20431;-73
2023/08/08 10:28:41;;;;;;;7.33;1.80;;;19.70;67.90;;;;;;5040153;28;20457;-72
2023/08/08 10:31:28;;;;;;;4.33;1.70;;;19.80;54.80;;;;;;5041629;28;20929;-72
2023/08/08 10:34:14;;;;;;;3.63;1.47;;;19.80;52.10;;;;;;5037520;28;20415;-72
2023/08/08 10:37:00;;;;;;;3.70;1.70;;;19.70;46.50;;;;;;5045541;28;20756;-72
2023/08/08 10:39:53;;;;;;;3.00;1.53;;;19.70;51.10;;;;;;5045616;28;20534;-72
2023/08/08 10:42:43;;;;;;;3.83;1.70;;;19.70;43.30;;;;;;5052379;28;20494;-72
2023/08/08 10:45:31;;;;;;;4.67;1.60;;;19.70;52.80;;;;;;5048512;28;20955;-72
2023/08/08 10:48:18;;;;;;;3.20;1.50;;;19.60;44.60;;;;;;5055907;28;20427;-73
2023/08/08 10:51:07;;;;;;;6.07;2.00;;;19.70;54.30;;;;;;5046503;28;20522;-72
2023/08/08 10:53:53;;;;;;;4.00;1.63;;;19.80;53.10;;;;;;5048521;28;20449;-73
2023/08/08 10:56:38;;;;;;;5.33;1.47;;;20.00;52.50;;;;;;5044922;28;20453;-72
2023/08/08 10:59:27;;;;;;;5.53;2.23;;;20.20;53.60;;;;;;5079600;22;20487;-75
2023/08/08 11:02:15;;;;;;;4.33;1.83;;;20.40;57.10;;;;;;5049601;28;21203;-75
2023/08/08 11:05:00;;;;;;;3.47;2.00;;;20.40;37.80;;;;;;5039505;28;20443;-74
2023/08/08 11:07:47;;;;;;;4.50;1.70;;;20.40;44.00;;;;;;5045660;28;20427;-75
2023/08/08 11:10:36;;;;;;;4.73;2.03;;;20.40;39.00;;;;;;5045546;28;20471;-75
2023/08/08 11:13:22;;;;;;;4.10;2.00;;;20.40;37.60;;;;;;5045886;28;20990;-75
2023/08/08 11:16:08;;;;;;;6.83;1.70;;;20.50;42.60;;;;;;5046337;28;20486;-75
2023/08/08 11:18:56;;;;;;;3.73;2.10;;;20.50;31.40;;;;;;5043584;28;20465;-74
2023/08/08 11:21:44;;;;;;;2.90;1.30;;;20.40;36.70;;;;;;5039169;28;20569;-74
2023/08/08 11:24:35;;;;;;;4.63;1.70;;;20.30;39.90;;;;;;5043273;28;20589;-75
2023/08/08 11:27:21;;;;;;;3.27;1.43;;;20.30;38.80;;;;;;5048191;28;20931;-74
2023/08/08 11:30:08;;;;;;;2.90;1.63;;;20.20;43.20;;;;;;5033913;28;21226;-75
2023/08/08 11:32:54;;;;;;;2.87;1.57;;;20.30;46.60;;;;;;5042995;28;20820;-75
2023/08/08 11:35:46;;;;;;;3.00;1.33;;;20.40;40.00;;;;;;5037762;28;20623;-74
2023/08/08 11:38:33;;;;;;;4.00;1.33;;;20.50;37.60;;;;;;5040841;28;20450;-75
2023/08/08 11:41:24;;;;;;;2.43;1.27;;;20.50;36.60;;;;;;5043410;28;20507;-75
2023/08/08 11:44:09;;;;;;;2.73;1.37;;;20.40;34.20;;;;;;5047137;28;20440;-75
2023/08/08 11:46:54;;;;;;;8.77;1.60;;;20.50;41.10;;;;;;5039071;28;20956;-75
2023/08/08 11:49:41;;;;;;;4.37;1.90;;;20.50;35.80;;;;;;5045823;28;20460;-75
2023/08/08 11:52:28;;;;;;;4.17;1.70;;;20.50;36.90;;;;;;5038296;28;20426;-74
2023/08/08 11:55:14;;;;;;;9.80;1.60;;;20.60;37.90;;;;;;5050753;28;20478;-74
2023/08/08 11:58:00;;;;;;;2.80;1.40;;;20.50;34.70;;;;;;5029536;28;21298;-73
2023/08/08 12:00:47;;;;;;;7.17;1.73;;;20.50;31.60;;;;;;5044375;28;20455;-73
2023/08/08 12:03:32;;;;;;;5.57;1.70;;;20.50;32.30;;;;;;5052203;28;20438;-76
2023/08/08 12:06:18;;;;;;;4.90;1.60;;;20.40;31.30;;;;;;5039414;28;20866;-73
2023/08/08 12:09:04;;;;;;;5.27;1.87;;;20.40;32.40;;;;;;5042145;28;20805;-75
2023/08/08 12:11:51;;;;;;;3.23;1.60;;;20.40;31.90;;;;;;5043074;28;20466;-73
2023/08/08 12:14:39;;;;;;;5.87;1.50;;;20.40;35.30;;;;;;5037182;28;20425;-75
2023/08/08 12:17:26;;;;;;;2.87;1.67;;;20.50;31.20;;;;;;5027548;28;20517;-76
2023/08/08 12:20:12;;;;;;;6.07;1.47;;;20.50;32.40;;;;;;5034273;28;20450;-73
2023/08/08 12:22:57;;;;;;;3.43;1.50;;;20.60;35.40;;;;;;5030045;28;20425;-74
2023/08/08 12:25:43;;;;;;;3.60;1.53;;;20.70;33.60;;;;;;5039706;28;20884;-74
2023/08/08 12:28:29;;;;;;;5.50;1.90;;;20.90;36.80;;;;;;5038070;28;20861;-76
2023/08/08 12:31:15;;;;;;;7.90;1.50;;;21.00;29.40;;;;;;5030805;28;20811;-76
2023/08/08 12:34:01;;;;;;;3.37;1.67;;;20.90;29.90;;;;;;5040156;28;20902;-76
2023/08/08 12:36:46;;;;;;;2.63;1.60;;;21.00;32.50;;;;;;5030174;28;20531;-73
2023/08/08 12:39:32;;;;;;;6.17;1.57;;;21.10;30.10;;;;;;5036182;28;20625;-73
2023/08/08 12:42:18;;;;;;;2.97;1.30;;;21.10;26.60;;;;;;5033162;28;20709;-75
2023/08/08 12:45:04;;;;;;;3.10;1.70;;;21.20;29.10;;;;;;5038679;28;20447;-75
2023/08/08 12:47:50;;;;;;;6.60;2.20;;;21.20;27.40;;;;;;5036040;28;20505;-75
2023/08/08 12:50:37;;;;;;;2.70;1.30;;;21.40;28.70;;;;;;5029373;28;20618;-75
2023/08/08 12:53:22;;;;;;;6.53;1.87;;;21.50;28.80;;;;;;5039901;28;20508;-76
2023/08/08 12:56:08;;;;;;;3.53;1.70;;;21.60;26.00;;;;;;5034645;28;20454;-76
2023/08/08 12:58:53;;;;;;;3.23;1.23;;;21.70;26.40;;;;;;5035727;28;20481;-76
2023/08/08 13:01:39;;;;;;;3.47;1.17;;;22.00;28.10;;;;;;5037778;28;20444;-76
2023/08/08 13:04:26;;;;;;;4.67;1.60;;;22.20;24.30;;;;;;5034508;28;20714;-76
2023/08/08 13:07:11;;;;;;;5.93;1.63;;;22.20;24.80;;;;;;5039524;28;20429;-73
2023/08/08 13:09:57;;;;;;;4.37;2.00;;;22.10;23.50;;;;;;5039256;28;20471;-75
2023/08/08 13:12:43;;;;;;;2.90;1.70;;;22.00;22.70;;;;;;5035456;28;20451;-76
2023/08/08 13:15:28;;;;;;;2.50;1.37;;;21.90;22.90;;;;;;5033686;28;20951;-75
2023/08/08 13:18:14;;;;;;;2.97;1.40;;;21.70;22.20;;;;;;5037073;28;20425;-76
2023/08/08 13:21:01;;;;;;;2.77;1.47;;;21.60;25.20;;;;;;5033313;28;20573;-76
2023/08/08 13:23:46;;;;;;;4.60;1.67;;;21.50;24.40;;;;;;5030730;28;20422;-75
2023/08/08 13:26:31;;;;;;;2.63;1.50;;;21.50;23.80;;;;;;5036709;28;20990;-76
2023/08/08 13:29:17;;;;;;;4.97;1.73;;;21.60;24.80;;;;;;5030072;28;20597;-75
2023/08/08 13:32:03;;;;;;;3.03;1.60;;;21.90;26.40;;;;;;5032069;28;20923;-76
2023/08/08 13:34:48;;;;;;;3.03;1.57;;;22.00;24.20;;;;;;5036507;28;20451;-74
2023/08/08 13:37:35;;;;;;;3.07;1.70;;;21.90;21.80;;;;;;5043926;28;20450;-76
2023/08/08 13:40:21;;;;;;;3.10;1.30;;;21.70;20.80;;;;;;5035559;28;20454;-76
2023/08/08 13:43:06;;;;;;;4.83;1.60;;;21.50;22.60;;;;;;5036292;28;20474;-76
2023/08/08 13:45:52;;;;;;;11.03;1.57;;;21.40;22.60;;;;;;5044048;28;20535;-76
2023/08/08 13:48:37;;;;;;;7.90;1.57;;;21.50;22.90;;;;;;5033728;28;20510;-76
2023/08/08 13:51:23;;;;;;;3.50;1.37;;;21.80;24.50;;;;;;5036166;28;20497;-77
2023/08/08 13:54:10;;;;;;;5.13;1.77;;;22.00;22.50;;;;;;5037012;28;20457;-75
2023/08/08 13:56:56;;;;;;;3.50;1.50;;;22.20;22.50;;;;;;5036921;28;20626;-76
2023/08/08 13:59:42;;;;;;;4.33;1.63;;;22.40;23.40;;;;;;5029780;28;20487;-76
2023/08/08 14:02:27;;;;;;;2.97;1.50;;;22.40;23.10;;;;;;5038856;28;21100;-75
2023/08/08 14:05:13;;;;;;;5.80;1.20;;;22.30;22.20;;;;;;5041585;28;21003;-75
2023/08/08 14:07:59;;;;;;;5.90;1.77;;;22.10;22.90;;;;;;5039069;28;20456;-75
2023/08/08 14:10:45;;;;;;;5.83;2.43;;;22.00;23.40;;;;;;5035067;28;20479;-75
2023/08/08 14:13:31;;;;;;;6.73;1.30;;;21.70;23.70;;;;;;5036914;28;20459;-76
2023/08/08 14:16:17;;;;;;;4.47;1.53;;;21.30;22.90;;;;;;5038347;28;20605;-76
2023/08/08 14:19:02;;;;;;;5.07;1.40;;;21.20;25.00;;;;;;5037548;28;20513;-76
2023/08/08 14:21:48;;;;;;;3.80;1.70;;;21.00;23.80;;;;;;5033125;28;20456;-75
2023/08/08 14:24:33;;;;;;;2.83;1.17;;;21.00;26.30;;;;;;5039694;28;20455;-76